Time;durP1;ratioP1;P1;durP2;ratioP2;P2;SDS_P1;SDS_P2;PMS_P1;PMS_P2;Temp;Humidity;BMP_temperature;BMP_pressure;BME280_temperature;BME280_humidity;BME280_pressure;Samples;Min_cycle;Max_cycle;Signal;HPM_P1;HPM_P2
2022/01/22 00:02:44;;;;;;;7.25;3.33;;;5.30;99.90;;;;;;10304752;28;20062;-62
2022/01/22 00:07:46;;;;;;;5.93;2.28;;;5.30;99.90;;;;;;10300803;28;20081;-60
2022/01/22 00:17:52;;;;;;;7.45;3.33;;;5.30;99.90;;;;;;10300580;28;20050;-60
2022/01/22 00:22:54;;;;;;;6.63;2.17;;;5.30;99.90;;;;;;10301656;28;20132;-59
2022/01/22 00:27:56;;;;;;;7.55;2.42;;;5.40;99.90;;;;;;10303773;28;20074;-60
2022/01/22 00:32:58;;;;;;;8.40;3.25;;;5.40;99.90;;;;;;10286953;28;20046;-60
2022/01/22 00:38:00;;;;;;;5.38;2.72;;;5.30;99.90;;;;;;10302560;28;20128;-60
2022/01/22 00:43:07;;;;;;;5.88;2.90;;;5.30;99.90;;;;;;10305241;28;20051;-62
2022/01/22 00:48:08;;;;;;;7.85;2.80;;;5.20;99.90;;;;;;10301968;28;20497;-60
2022/01/22 00:53:10;;;;;;;4.53;2.78;;;5.20;99.90;;;;;;10302993;28;20145;-60
2022/01/22 00:58:12;;;;;;;6.65;3.20;;;5.20;99.90;;;;;;10301646;28;20482;-61
2022/01/22 01:03:14;;;;;;;3.38;2.03;;;5.10;99.90;;;;;;10305999;28;20074;-62
2022/01/22 01:08:15;;;;;;;2.53;2.00;;;5.10;99.90;;;;;;10297381;28;20057;-62
2022/01/22 01:13:17;;;;;;;6.30;2.05;;;5.10;99.90;;;;;;10304028;28;20105;-60
2022/01/22 01:34:22;;;;;;;1.00;0.80;;;5.10;99.90;;;;;;10301735;28;20085;-60
2022/01/22 01:39:32;;;;;;;1.92;0.60;;;5.10;99.90;;;;;;10295925;28;20089;-60
2022/01/22 01:44:33;;;;;;;1.58;0.77;;;5.10;99.90;;;;;;10302850;28;20137;-59
2022/01/22 01:49:36;;;;;;;3.13;0.60;;;5.10;99.90;;;;;;10299045;28;20497;-60
2022/01/22 01:59:46;;;;;;;;;;;5.20;99.90;;;;;;10299891;28;20437;-60
2022/01/22 02:04:48;;;;;;;0.70;0.50;;;5.20;99.90;;;;;;10297603;28;19960;-59
2022/01/22 02:09:50;;;;;;;0.88;0.50;;;5.10;99.90;;;;;;10301492;28;20050;-59
2022/01/22 02:25:32;;;;;;;1.00;0.50;;;5.20;99.90;;;;;;10298950;28;20136;-60
2022/01/22 02:30:38;;;;;;;5.15;0.70;;;5.20;99.90;;;;;;10299368;28;20065;-59
2022/01/22 02:35:52;;;;;;;3.85;0.40;;;5.10;99.90;;;;;;10298839;28;27043;-60
2022/01/22 02:40:53;;;;;;;2.70;0.50;;;5.20;99.90;;;;;;10300245;28;20125;-60
2022/01/22 02:45:55;;;;;;;0.65;0.40;;;5.20;99.90;;;;;;10299804;28;20070;-60
2022/01/22 02:50:56;;;;;;;1.55;0.60;;;5.20;99.90;;;;;;10298005;28;20127;-60
2022/01/22 02:55:59;;;;;;;5.20;0.50;;;5.10;99.90;;;;;;10297186;28;20078;-60
2022/01/22 03:01:00;;;;;;;1.88;0.50;;;5.10;99.90;;;;;;10300591;28;20125;-60
2022/01/22 03:06:02;;;;;;;1.85;0.50;;;5.10;99.90;;;;;;10307215;28;20105;-60
2022/01/22 03:11:15;;;;;;;0.60;0.55;;;5.10;99.90;;;;;;10307714;28;20116;-60
2022/01/22 03:21:34;;;;;;;1.02;0.50;;;5.10;99.90;;;;;;10307976;28;20105;-60
2022/01/22 03:31:56;;;;;;;0.90;0.70;;;5.10;99.90;;;;;;10306789;28;20141;-60
2022/01/22 03:36:58;;;;;;;1.52;0.50;;;5.10;99.90;;;;;;10308233;28;20057;-61
2022/01/22 03:42:00;;;;;;;1.60;0.40;;;5.10;99.90;;;;;;10304055;28;20081;-60
2022/01/22 03:47:02;;;;;;;5.97;0.50;;;5.00;99.90;;;;;;10305225;28;20109;-60
2022/01/22 03:52:04;;;;;;;0.70;0.50;;;5.10;99.90;;;;;;10310963;28;20047;-60
2022/01/22 03:57:08;;;;;;;1.27;0.70;;;5.00;99.90;;;;;;10303275;28;20049;-60
2022/01/22 04:02:54;;;;;;;0.82;0.60;;;5.10;99.90;;;;;;10303770;28;20057;-60
2022/01/22 04:13:02;;;;;;;0.95;0.70;;;5.10;99.90;;;;;;10309313;28;20112;-60
2022/01/22 04:28:45;;;;;;;1.05;0.70;;;5.10;99.90;;;;;;10304806;28;20035;-59
2022/01/22 04:33:47;;;;;;;0.60;0.50;;;5.00;99.90;;;;;;10302466;28;20065;-60
2022/01/22 04:38:49;;;;;;;2.05;0.75;;;5.00;99.90;;;;;;10307878;28;20132;-60
2022/01/22 04:43:57;;;;;;;0.90;0.50;;;5.00;99.90;;;;;;10302998;28;20085;-60
2022/01/22 04:59:27;;;;;;;1.42;0.50;;;5.00;99.90;;;;;;10305145;28;20073;-60
2022/01/22 05:04:28;;;;;;;1.25;0.50;;;5.00;99.90;;;;;;10302952;28;20698;-59
2022/01/22 05:09:30;;;;;;;1.00;0.60;;;5.00;99.90;;;;;;10300744;28;20081;-60
2022/01/22 05:14:33;;;;;;;1.17;0.60;;;5.00;99.90;;;;;;10300609;28;20133;-60
2022/01/22 05:24:48;;;;;;;1.23;0.60;;;5.00;99.90;;;;;;10303122;28;20718;-60
2022/01/22 05:40:30;;;;;;;1.13;0.70;;;5.10;99.90;;;;;;10305220;28;20062;-59
2022/01/22 05:45:32;;;;;;;0.90;0.50;;;5.20;99.90;;;;;;10298526;28;20051;-60
2022/01/22 05:50:47;;;;;;;1.58;0.60;;;5.10;99.90;;;;;;10299321;28;20047;-61
2022/01/22 06:00:57;;;;;;;;;;;5.20;99.90;;;;;;10294115;28;20055;-60
2022/01/22 06:06:00;;;;;;;2.03;1.00;;;5.20;99.90;;;;;;10295886;28;19926;-60
2022/01/22 06:11:10;;;;;;;1.30;0.65;;;5.20;99.90;;;;;;10301723;28;20057;-60
2022/01/22 06:16:18;;;;;;;1.30;0.70;;;5.20;99.90;;;;;;10298440;28;20047;-60
2022/01/22 06:21:19;;;;;;;0.80;0.60;;;5.20;99.90;;;;;;10297675;28;20104;-60
2022/01/22 06:26:21;;;;;;;0.93;0.55;;;5.20;99.90;;;;;;10255080;28;20047;-60
2022/01/22 06:31:23;;;;;;;1.00;0.70;;;5.30;99.90;;;;;;10299877;28;20058;-60
2022/01/22 06:36:26;;;;;;;2.10;0.75;;;5.30;99.90;;;;;;10313192;28;20156;-60
2022/01/22 06:41:46;;;;;;;1.33;0.80;;;5.30;99.90;;;;;;10311531;28;20054;-61
2022/01/22 06:46:54;;;;;;;1.15;0.65;;;5.30;99.90;;;;;;10313089;28;20046;-61
2022/01/22 06:51:55;;;;;;;1.35;0.60;;;5.30;99.90;;;;;;10308566;28;20201;-60
2022/01/22 06:56:57;;;;;;;1.52;0.63;;;5.40;99.90;;;;;;10318360;28;20038;-58
2022/01/22 07:01:59;;;;;;;1.33;0.60;;;5.40;99.90;;;;;;10311876;28;20066;-61
2022/01/22 07:07:00;;;;;;;1.42;0.70;;;5.40;99.90;;;;;;10318303;28;20125;-59
2022/01/22 07:12:04;;;;;;;0.90;0.70;;;5.50;99.90;;;;;;10306489;28;20133;-61
2022/01/22 07:17:07;;;;;;;1.05;0.70;;;5.50;99.90;;;;;;10314997;28;20119;-60
2022/01/22 07:22:31;;;;;;;1.55;0.75;;;5.60;99.90;;;;;;10309860;28;20074;-60
2022/01/22 07:27:30;;;;;;;2.33;0.95;;;5.50;99.90;;;;;;10315493;28;20097;-60
2022/01/22 07:32:36;;;;;;;2.00;1.00;;;5.60;99.90;;;;;;10313957;28;20050;-60
2022/01/22 07:37:39;;;;;;;1.67;1.00;;;5.60;99.90;;;;;;10309740;28;20062;-60
2022/01/22 07:42:41;;;;;;;2.08;1.17;;;5.60;99.90;;;;;;10312217;28;20074;-60
2022/01/22 07:47:42;;;;;;;1.92;1.05;;;5.60;99.90;;;;;;10309561;28;20050;-60
2022/01/22 07:52:44;;;;;;;2.00;0.90;;;5.60;99.90;;;;;;10301147;28;20096;-60
2022/01/22 07:57:46;;;;;;;1.80;1.08;;;5.60;99.90;;;;;;10310661;28;20128;-61
2022/01/22 08:02:48;;;;;;;2.30;1.10;;;5.70;99.90;;;;;;10302962;28;20468;-60
2022/01/22 08:07:49;;;;;;;1.98;1.08;;;5.70;99.90;;;;;;10304883;28;20112;-60
2022/01/22 08:12:51;;;;;;;3.10;1.58;;;5.80;99.90;;;;;;10304370;28;20145;-60
2022/01/22 08:17:55;;;;;;;2.13;1.13;;;5.80;99.90;;;;;;10299605;28;20042;-60
2022/01/22 08:22:57;;;;;;;1.58;0.80;;;5.80;99.90;;;;;;10301875;28;20050;-60
2022/01/22 08:33:33;;;;;;;1.88;1.00;;;5.90;99.90;;;;;;10303517;28;20104;-60
2022/01/22 08:38:31;;;;;;;1.45;1.00;;;5.90;99.90;;;;;;10303163;28;20189;-60
2022/01/22 08:43:33;;;;;;;2.97;1.15;;;5.90;99.90;;;;;;10301088;28;20077;-60
2022/01/22 08:48:35;;;;;;;2.38;1.27;;;5.90;99.90;;;;;;10301533;28;20887;-60
2022/01/22 08:53:36;;;;;;;2.22;1.17;;;5.90;99.90;;;;;;10298353;28;20057;-60
2022/01/22 08:58:38;;;;;;;3.05;1.30;;;5.90;99.90;;;;;;10301875;28;20070;-60
2022/01/22 09:03:40;;;;;;;2.22;1.20;;;5.90;99.90;;;;;;10302999;28;20104;-60
2022/01/22 09:08:42;;;;;;;2.92;1.50;;;6.00;99.90;;;;;;10298474;28;20078;-60
2022/01/22 09:13:44;;;;;;;4.97;2.70;;;6.00;99.90;;;;;;10308867;28;20069;-60
2022/01/22 09:18:46;;;;;;;5.15;2.13;;;6.00;99.90;;;;;;10303476;28;20053;-60
2022/01/22 09:23:48;;;;;;;2.50;1.52;;;6.00;99.90;;;;;;10306643;28;20101;-60
2022/01/22 09:28:50;;;;;;;4.30;2.05;;;6.20;99.90;;;;;;10302456;28;20046;-62
2022/01/22 09:33:56;;;;;;;6.55;2.63;;;6.20;99.90;;;;;;10299086;28;20124;-60
2022/01/22 09:38:58;;;;;;;3.08;1.95;;;6.30;99.90;;;;;;10299469;28;20731;-61
2022/01/22 09:43:59;;;;;;;6.10;1.95;;;6.30;99.90;;;;;;10308615;28;20054;-61
2022/01/22 09:49:01;;;;;;;4.00;1.80;;;6.40;99.90;;;;;;10296135;28;20069;-60
2022/01/22 09:54:05;;;;;;;3.13;1.65;;;6.50;99.90;;;;;;10298682;28;20108;-61
2022/01/22 09:59:09;;;;;;;5.80;2.42;;;6.40;99.90;;;;;;10298672;28;20046;-60
2022/01/22 10:04:11;;;;;;;4.50;1.90;;;6.30;99.90;;;;;;10296337;28;20540;-61
2022/01/22 10:09:25;;;;;;;4.03;1.52;;;6.40;99.90;;;;;;10297642;28;20054;-60
2022/01/22 10:14:27;;;;;;;3.75;2.05;;;6.40;99.90;;;;;;10299221;28;20054;-60
2022/01/22 10:19:28;;;;;;;2.72;1.27;;;6.50;99.90;;;;;;10299366;28;20141;-61
2022/01/22 10:24:41;;;;;;;4.65;2.10;;;6.50;99.90;;;;;;10297295;28;20335;-60
2022/01/22 10:29:49;;;;;;;3.47;1.92;;;6.50;99.90;;;;;;10297896;28;20053;-61
2022/01/22 10:35:03;;;;;;;3.10;2.17;;;6.60;99.90;;;;;;10307911;28;20456;-61
2022/01/22 10:40:28;;;;;;;4.35;1.98;;;6.60;99.90;;;;;;10296440;28;20141;-61
2022/01/22 10:45:31;;;;;;;6.35;2.60;;;6.80;99.90;;;;;;10297390;28;20776;-57
2022/01/22 10:50:34;;;;;;;3.58;1.50;;;6.80;99.90;;;;;;10301556;28;20070;-58
2022/01/22 10:56:04;;;;;;;4.03;1.45;;;6.90;99.90;;;;;;10299927;28;20575;-60
2022/01/22 11:01:06;;;;;;;4.25;2.00;;;6.80;99.90;;;;;;10298362;28;20050;-60
2022/01/22 11:06:26;;;;;;;5.07;2.05;;;6.70;99.90;;;;;;10293521;28;20086;-61
2022/01/22 11:11:29;;;;;;;3.85;2.05;;;6.70;99.90;;;;;;10297803;28;20517;-60
2022/01/22 11:16:32;;;;;;;4.57;1.70;;;6.80;99.90;;;;;;10296591;28;20143;-60
2022/01/22 11:21:53;;;;;;;2.47;1.60;;;6.80;99.90;;;;;;10301371;28;20481;-60
2022/01/22 11:26:57;;;;;;;;;;;6.90;99.90;;;;;;10310229;28;20489;-60
2022/01/22 11:32:04;;;;;;;1.67;1.08;;;6.90;99.90;;;;;;10307422;28;20463;-60
2022/01/22 11:37:23;;;;;;;4.07;1.50;;;6.80;99.90;;;;;;10304470;28;20109;-60
2022/01/22 11:42:57;;;;;;;4.68;1.75;;;6.80;99.90;;;;;;10304369;28;20372;-60
2022/01/22 11:48:10;;;;;;;3.00;1.35;;;6.90;99.90;;;;;;10303384;28;20050;-60
2022/01/22 11:53:22;;;;;;;3.03;1.35;;;6.80;99.90;;;;;;10305662;28;22673;-60
2022/01/22 11:58:23;;;;;;;2.50;1.10;;;6.80;99.90;;;;;;10305372;28;20242;-60
2022/01/22 12:03:25;;;;;;;2.70;1.23;;;6.80;99.90;;;;;;10302418;28;20097;-60
2022/01/22 12:09:06;;;;;;;2.95;1.05;;;6.70;99.90;;;;;;10300560;28;20049;-60
2022/01/22 12:14:28;;;;;;;3.05;1.38;;;6.70;99.90;;;;;;10307676;28;20103;-60
2022/01/22 12:19:51;;;;;;;4.72;1.63;;;6.80;99.90;;;;;;10302643;28;20560;-60
2022/01/22 12:24:52;;;;;;;3.45;1.48;;;6.70;99.90;;;;;;10304029;28;20110;-60
2022/01/22 12:30:00;;;;;;;1.90;1.42;;;6.70;99.90;;;;;;10306048;28;20046;-60
2022/01/22 12:35:07;;;;;;;2.72;1.70;;;6.80;99.90;;;;;;10301972;28;20046;-60
2022/01/22 12:40:11;;;;;;;2.95;1.48;;;6.80;99.90;;;;;;10309060;28;20513;-60
2022/01/22 12:45:12;;;;;;;4.22;1.42;;;6.70;99.90;;;;;;10299255;28;20051;-62
2022/01/22 12:50:14;;;;;;;3.47;1.55;;;6.80;99.90;;;;;;10305834;28;20092;-61
2022/01/22 12:55:19;;;;;;;2.80;1.45;;;6.80;99.90;;;;;;10298028;28;20120;-61
2022/01/22 13:00:32;;;;;;;5.25;2.08;;;6.90;99.90;;;;;;10301687;28;20065;-62
2022/01/22 13:05:34;;;;;;;5.55;2.42;;;7.00;99.90;;;;;;10300567;28;20065;-63
2022/01/22 13:10:44;;;;;;;7.95;2.33;;;6.90;99.90;;;;;;10301082;28;20066;-63
2022/01/22 13:15:46;;;;;;;4.35;2.05;;;7.00;99.90;;;;;;10304213;28;20053;-63
2022/01/22 13:20:48;;;;;;;3.75;1.83;;;7.00;99.90;;;;;;10303646;28;20102;-63
2022/01/22 13:25:51;;;;;;;5.10;1.83;;;7.00;99.90;;;;;;10299286;28;20877;-62
2022/01/22 13:30:59;;;;;;;6.25;1.98;;;6.90;99.90;;;;;;10299609;28;20713;-63
2022/01/22 13:36:17;;;;;;;5.18;1.92;;;7.00;99.90;;;;;;10302292;28;20437;-63
2022/01/22 13:52:16;;;;;;;2.70;1.33;;;7.20;99.90;;;;;;10298663;28;20053;-62
2022/01/22 13:57:21;;;;;;;3.83;1.75;;;7.20;99.90;;;;;;10295542;28;20042;-62
2022/01/22 14:02:48;;;;;;;2.40;1.27;;;7.30;99.90;;;;;;10293858;28;20152;-62
2022/01/22 14:07:59;;;;;;;1.50;0.75;;;7.30;99.90;;;;;;10303518;28;20049;-62
2022/01/22 14:13:10;;;;;;;7.85;0.90;;;7.40;99.90;;;;;;10294084;28;20057;-62
2022/01/22 14:18:22;;;;;;;1.30;0.82;;;7.50;99.90;;;;;;10305984;28;20042;-62
2022/01/22 14:23:24;;;;;;;2.45;0.98;;;7.50;99.90;;;;;;10298487;28;20054;-62
2022/01/22 14:28:37;;;;;;;2.45;0.80;;;7.50;99.90;;;;;;10299753;28;20468;-62
2022/01/22 14:33:42;;;;;;;2.42;0.60;;;7.60;99.90;;;;;;10305841;28;20082;-62
2022/01/22 14:38:55;;;;;;;1.05;0.65;;;7.50;99.90;;;;;;10301929;28;20115;-62
2022/01/22 14:44:16;;;;;;;1.40;0.60;;;7.50;99.90;;;;;;10298822;28;20046;-62
2022/01/22 14:49:20;;;;;;;1.40;0.73;;;7.50;99.90;;;;;;10299588;28;20051;-62
2022/01/22 14:54:24;;;;;;;1.90;0.93;;;7.40;99.90;;;;;;10300954;28;20066;-62
2022/01/22 14:59:26;;;;;;;2.92;0.70;;;7.40;99.90;;;;;;10311085;28;20125;-62
2022/01/22 15:04:29;;;;;;;1.45;0.52;;;7.40;99.90;;;;;;10305812;28;20424;-62
2022/01/22 15:09:31;;;;;;;1.77;0.90;;;7.40;99.90;;;;;;10310338;28;20089;-62
2022/01/22 15:14:32;;;;;;;6.50;1.77;;;7.50;99.90;;;;;;10305675;28;20114;-62
2022/01/22 15:19:42;;;;;;;1.50;0.70;;;7.40;99.90;;;;;;10313312;28;20489;-61
2022/01/22 15:24:46;;;;;;;1.45;0.70;;;7.40;99.90;;;;;;10304687;28;20074;-61
2022/01/22 15:30:00;;;;;;;1.15;0.70;;;7.40;99.90;;;;;;10303497;28;20513;-62
2022/01/22 15:35:04;;;;;;;1.67;0.80;;;7.40;99.90;;;;;;10296773;28;20058;-61
2022/01/22 15:40:07;;;;;;;1.58;0.68;;;7.30;99.90;;;;;;10302142;28;20161;-62
2022/01/22 15:45:09;;;;;;;1.45;0.90;;;7.20;99.90;;;;;;10304289;28;20101;-61
2022/01/22 15:50:11;;;;;;;1.30;0.90;;;7.20;99.90;;;;;;10302723;28;20046;-62
2022/01/22 15:55:32;;;;;;;2.10;0.88;;;7.10;99.90;;;;;;10301542;28;20060;-61
2022/01/22 16:00:36;;;;;;;2.72;0.82;;;7.10;99.90;;;;;;10301071;28;20121;-61
2022/01/22 16:05:39;;;;;;;3.10;1.60;;;7.00;99.90;;;;;;10301861;28;20050;-61
2022/01/22 16:10:41;;;;;;;1.35;0.70;;;7.00;99.90;;;;;;10302577;28;20046;-61
2022/01/22 16:15:43;;;;;;;2.38;1.27;;;7.00;99.90;;;;;;10303169;28;20077;-61
2022/01/22 16:20:45;;;;;;;3.65;1.38;;;7.00;99.90;;;;;;10306321;28;20664;-61
2022/01/22 16:25:47;;;;;;;3.47;0.80;;;7.00;99.90;;;;;;10307185;28;20528;-61
2022/01/22 16:30:48;;;;;;;2.53;1.20;;;7.00;99.90;;;;;;10309719;28;20124;-61
2022/01/22 16:35:51;;;;;;;4.32;1.42;;;7.00;99.90;;;;;;10304115;28;20050;-61
2022/01/22 16:40:55;;;;;;;1.88;0.98;;;6.90;99.90;;;;;;10293721;28;20050;-61
2022/01/22 16:56:39;;;;;;;2.42;1.02;;;6.90;99.90;;;;;;10304166;28;20058;-62
2022/01/22 17:01:45;;;;;;;1.83;0.70;;;6.80;99.90;;;;;;10299291;28;20513;-63
2022/01/22 17:06:49;;;;;;;4.03;1.17;;;6.80;99.90;;;;;;10298142;28;20050;-62
2022/01/22 17:17:13;;;;;;;2.05;0.77;;;6.70;99.90;;;;;;10298520;28;20078;-61
2022/01/22 17:22:14;;;;;;;4.97;1.10;;;6.70;99.90;;;;;;10305416;28;20062;-61
2022/01/22 17:27:19;;;;;;;4.05;1.45;;;6.60;99.90;;;;;;10297703;28;20128;-62
2022/01/22 17:32:21;;;;;;;5.97;3.17;;;6.60;99.90;;;;;;10300179;28;20058;-61
2022/01/22 17:37:23;;;;;;;4.65;1.90;;;6.60;99.90;;;;;;10299142;28;20141;-61
2022/01/22 17:42:29;;;;;;;5.05;2.20;;;6.70;99.90;;;;;;10301598;28;20230;-61
2022/01/22 17:47:30;;;;;;;3.95;1.63;;;6.60;99.90;;;;;;10300021;28;20165;-62
2022/01/22 17:52:32;;;;;;;4.45;1.65;;;6.60;99.90;;;;;;10306785;28;20074;-60
2022/01/22 17:57:34;;;;;;;4.03;1.30;;;6.60;99.90;;;;;;10304064;28;20069;-62
2022/01/22 18:02:35;;;;;;;3.15;1.30;;;6.60;99.90;;;;;;10297295;28;20058;-63
2022/01/22 18:07:37;;;;;;;6.60;2.53;;;6.60;99.90;;;;;;10299466;28;20136;-62
2022/01/22 18:12:38;;;;;;;6.80;2.45;;;6.50;99.90;;;;;;10298336;28;20054;-63
2022/01/22 18:17:40;;;;;;;8.95;3.58;;;6.40;99.90;;;;;;10297917;28;20085;-61
2022/01/22 18:22:42;;;;;;;5.57;2.60;;;6.40;99.90;;;;;;10301123;28;20053;-62
2022/01/22 18:27:45;;;;;;;7.65;2.90;;;6.30;99.90;;;;;;10299087;28;20049;-62
2022/01/22 18:32:47;;;;;;;6.80;3.13;;;6.30;99.90;;;;;;10297150;28;20440;-62
2022/01/22 18:37:49;;;;;;;6.50;3.00;;;6.30;99.90;;;;;;10300317;28;20046;-62
2022/01/22 18:42:53;;;;;;;8.32;3.67;;;6.30;99.90;;;;;;10304875;28;20124;-62
2022/01/22 18:47:56;;;;;;;7.65;3.67;;;6.30;99.90;;;;;;10300448;28;20556;-62
2022/01/22 18:52:58;;;;;;;8.40;3.75;;;6.30;99.90;;;;;;10290190;28;20104;-62
2022/01/22 18:57:59;;;;;;;7.30;3.70;;;6.30;99.90;;;;;;10296495;28;20066;-62
2022/01/22 19:03:01;;;;;;;7.05;3.88;;;6.30;99.90;;;;;;10299053;28;20096;-62
2022/01/22 19:08:04;;;;;;;7.60;3.58;;;6.30;99.90;;;;;;10302459;28;20054;-62
2022/01/22 19:13:05;;;;;;;7.45;3.03;;;6.30;99.90;;;;;;10297089;28;20049;-62
2022/01/22 19:18:07;;;;;;;12.45;3.90;;;6.30;99.90;;;;;;10302603;28;20062;-61
2022/01/22 19:23:28;;;;;;;10.30;3.33;;;6.30;99.90;;;;;;10300349;28;20115;-62
2022/01/22 19:28:30;;;;;;;13.15;4.13;;;6.30;99.90;;;;;;10294478;28;20808;-61
2022/01/22 19:33:32;;;;;;;12.35;4.20;;;6.40;99.90;;;;;;10297133;28;20590;-62
2022/01/22 19:38:34;;;;;;;9.32;3.20;;;6.40;99.90;;;;;;10297949;28;20070;-61
2022/01/22 19:43:42;;;;;;;10.30;3.08;;;6.40;99.90;;;;;;10302498;28;20097;-62
2022/01/22 19:48:48;;;;;;;8.77;3.17;;;6.50;99.90;;;;;;10301743;28;20056;-62
2022/01/22 19:53:51;;;;;;;6.15;2.90;;;6.50;99.90;;;;;;10302702;28;20524;-61
2022/01/22 19:58:53;;;;;;;9.93;3.42;;;6.50;99.90;;;;;;10304800;28;20065;-63
2022/01/22 20:03:55;;;;;;;7.97;3.60;;;6.50;99.90;;;;;;10306115;28;20042;-61
2022/01/22 20:08:57;;;;;;;8.65;3.65;;;6.50;99.90;;;;;;10305316;28;20097;-62
2022/01/22 20:14:01;;;;;;;9.68;5.03;;;6.50;99.90;;;;;;10300467;28;20456;-61
2022/01/22 20:19:03;;;;;;;7.00;3.30;;;6.50;99.90;;;;;;10294500;28;20105;-62
2022/01/22 20:24:12;;;;;;;9.60;3.20;;;6.50;99.90;;;;;;10305250;28;20097;-63
2022/01/22 20:29:15;;;;;;;9.05;4.47;;;6.50;99.90;;;;;;10307607;28;20058;-62
2022/01/22 20:34:16;;;;;;;9.10;3.45;;;6.50;99.90;;;;;;10305642;28;20074;-62
2022/01/22 20:39:18;;;;;;;6.57;3.05;;;6.50;99.90;;;;;;10308696;28;20441;-62
2022/01/22 20:44:22;;;;;;;9.45;3.78;;;6.50;99.90;;;;;;10299790;28;20068;-63
2022/01/22 20:49:24;;;;;;;7.53;3.03;;;6.50;99.90;;;;;;10299889;28;20156;-62
2022/01/22 20:54:26;;;;;;;7.15;2.85;;;6.50;99.90;;;;;;10299185;28;20630;-62
2022/01/22 20:59:28;;;;;;;7.00;3.28;;;6.50;99.90;;;;;;10302631;28;20486;-62
2022/01/22 21:04:30;;;;;;;6.32;2.63;;;6.50;99.90;;;;;;10300155;28;20498;-62
2022/01/22 21:09:31;;;;;;;6.97;2.58;;;6.50;99.90;;;;;;10308875;28;20136;-62
2022/01/22 21:14:35;;;;;;;7.63;3.08;;;6.50;99.90;;;;;;10297163;28;20728;-62
2022/01/22 21:19:36;;;;;;;6.57;3.08;;;6.60;99.90;;;;;;10297536;28;20137;-62
2022/01/22 21:24:38;;;;;;;7.90;2.50;;;6.60;99.90;;;;;;10301264;28;20082;-62
2022/01/22 21:29:42;;;;;;;6.30;2.40;;;6.50;99.90;;;;;;10303662;28;20074;-62
2022/01/22 21:34:43;;;;;;;6.10;2.00;;;6.60;99.90;;;;;;10295614;28;26647;-62
2022/01/22 21:39:45;;;;;;;5.25;2.22;;;6.60;99.90;;;;;;10301421;28;20525;-62
2022/01/22 21:44:51;;;;;;;8.95;3.65;;;6.60;99.90;;;;;;10297944;28;20069;-62
2022/01/22 21:49:54;;;;;;;12.90;5.32;;;6.60;99.90;;;;;;10299848;28;20054;-62
2022/01/22 21:54:57;;;;;;;14.90;5.43;;;6.50;99.90;;;;;;10316867;28;20050;-62
2022/01/22 21:59:59;;;;;;;9.57;3.67;;;6.50;99.90;;;;;;10298711;28;20125;-61
2022/01/22 22:05:01;;;;;;;11.77;5.07;;;6.50;99.90;;;;;;10299171;28;20469;-62
2022/01/22 22:10:05;;;;;;;14.02;4.63;;;6.50;99.90;;;;;;10302029;28;20062;-62
2022/01/22 22:15:07;;;;;;;10.38;4.22;;;6.40;99.90;;;;;;10297845;28;20077;-62
2022/01/22 22:20:09;;;;;;;8.63;3.70;;;6.40;99.90;;;;;;10300955;28;20172;-62
2022/01/22 22:25:11;;;;;;;8.98;4.15;;;6.40;99.90;;;;;;10301212;28;20084;-62
2022/01/22 22:30:14;;;;;;;12.15;4.43;;;6.40;99.90;;;;;;10298663;28;20587;-62
2022/01/22 22:35:19;;;;;;;10.55;4.32;;;6.40;99.90;;;;;;10301490;28;20665;-62
2022/01/22 22:40:23;;;;;;;7.55;3.22;;;6.40;99.90;;;;;;10302431;28;20136;-62
2022/01/22 22:45:30;;;;;;;7.05;2.45;;;6.40;99.90;;;;;;10295311;28;20046;-62
2022/01/22 22:50:32;;;;;;;10.30;2.97;;;6.40;99.90;;;;;;10302513;28;20116;-62
2022/01/22 22:55:33;;;;;;;5.38;2.25;;;6.50;99.90;;;;;;10294838;28;20046;-63
2022/01/22 23:00:46;;;;;;;9.23;2.08;;;6.50;99.90;;;;;;10301972;28;20742;-63
2022/01/22 23:05:49;;;;;;;5.75;2.13;;;6.50;99.90;;;;;;10305704;28;20542;-61
2022/01/22 23:10:52;;;;;;;5.78;2.72;;;6.50;99.90;;;;;;10295919;28;20054;-62
2022/01/22 23:15:59;;;;;;;6.13;2.40;;;6.60;99.90;;;;;;10294849;28;20082;-62
2022/01/22 23:21:29;;;;;;;4.68;1.92;;;6.50;99.90;;;;;;10308003;28;20049;-63
2022/01/22 23:26:34;;;;;;;7.60;3.17;;;6.50;99.90;;;;;;10304410;28;20085;-64
2022/01/22 23:31:47;;;;;;;7.72;3.33;;;6.50;99.90;;;;;;10303434;28;20077;-63
2022/01/22 23:37:29;;;;;;;6.00;2.90;;;6.50;99.90;;;;;;10310749;28;20905;-63
2022/01/22 23:58:20;;;;;;;10.20;4.53;;;6.40;99.90;;;;;;10300910;28;20446;-61
